sensor_id;sensor_type;location;lat;lon;timestamp;temperature;humidity
30069;DHT22;16894;49.456;10.644;2023-07-13T00:01:28;20.40;91.90
30069;DHT22;16894;49.456;10.644;2023-07-13T00:03:55;20.40;91.90
30069;DHT22;16894;49.456;10.644;2023-07-13T00:06:21;20.40;92.00
30069;DHT22;16894;49.456;10.644;2023-07-13T00:08:47;20.20;92.10
30069;DHT22;16894;49.456;10.644;2023-07-13T00:11:15;20.20;91.60
30069;DHT22;16894;49.456;10.644;2023-07-13T00:13:41;20.20;92.00
30069;DHT22;16894;49.456;10.644;2023-07-13T00:16:08;20.10;91.90
30069;DHT22;16894;49.456;10.644;2023-07-13T00:18:34;20.10;91.80
30069;DHT22;16894;49.456;10.644;2023-07-13T00:21:00;20.00;92.10
30069;DHT22;16894;49.456;10.644;2023-07-13T00:23:32;20.00;92.10
30069;DHT22;16894;49.456;10.644;2023-07-13T00:26:00;20.00;91.90
30069;DHT22;16894;49.456;10.644;2023-07-13T00:28:26;20.00;92.10
30069;DHT22;16894;49.456;10.644;2023-07-13T00:30:51;20.00;92.20
30069;DHT22;16894;49.456;10.644;2023-07-13T00:33:17;19.90;92.60
30069;DHT22;16894;49.456;10.644;2023-07-13T00:35:43;19.80;92.60
30069;DHT22;16894;49.456;10.644;2023-07-13T00:38:09;19.80;92.70
30069;DHT22;16894;49.456;10.644;2023-07-13T00:40:35;19.80;93.00
30069;DHT22;16894;49.456;10.644;2023-07-13T00:43:01;19.70;93.20
30069;DHT22;16894;49.456;10.644;2023-07-13T00:47:53;19.50;93.80
30069;DHT22;16894;49.456;10.644;2023-07-13T00:50:20;19.50;94.00
30069;DHT22;16894;49.456;10.644;2023-07-13T00:52:49;19.50;94.10
30069;DHT22;16894;49.456;10.644;2023-07-13T00:55:16;19.40;94.60
30069;DHT22;16894;49.456;10.644;2023-07-13T00:57:43;19.40;94.60
30069;DHT22;16894;49.456;10.644;2023-07-13T01:00:09;19.30;94.70
30069;DHT22;16894;49.456;10.644;2023-07-13T01:02:38;19.40;94.80
30069;DHT22;16894;49.456;10.644;2023-07-13T01:05:12;19.30;94.80
30069;DHT22;16894;49.456;10.644;2023-07-13T01:07:40;19.20;94.90
30069;DHT22;16894;49.456;10.644;2023-07-13T01:10:07;19.10;95.30
30069;DHT22;16894;49.456;10.644;2023-07-13T01:12:33;18.90;95.30
30069;DHT22;16894;49.456;10.644;2023-07-13T01:14:59;18.90;95.50
30069;DHT22;16894;49.456;10.644;2023-07-13T01:17:28;18.80;95.90
30069;DHT22;16894;49.456;10.644;2023-07-13T01:19:55;18.70;95.80
30069;DHT22;16894;49.456;10.644;2023-07-13T01:22:20;18.70;95.70
30069;DHT22;16894;49.456;10.644;2023-07-13T01:24:53;18.70;96.10
30069;DHT22;16894;49.456;10.644;2023-07-13T01:27:24;18.60;96.00
30069;DHT22;16894;49.456;10.644;2023-07-13T01:29:51;18.60;96.10
30069;DHT22;16894;49.456;10.644;2023-07-13T01:32:23;18.50;96.30
30069;DHT22;16894;49.456;10.644;2023-07-13T01:34:53;18.50;96.60
30069;DHT22;16894;49.456;10.644;2023-07-13T01:37:23;18.40;96.80
30069;DHT22;16894;49.456;10.644;2023-07-13T01:39:49;18.30;97.10
30069;DHT22;16894;49.456;10.644;2023-07-13T01:42:15;18.30;97.30
30069;DHT22;16894;49.456;10.644;2023-07-13T01:44:41;18.30;97.70
30069;DHT22;16894;49.456;10.644;2023-07-13T01:47:06;18.30;97.80
30069;DHT22;16894;49.456;10.644;2023-07-13T01:49:32;18.30;97.90
30069;DHT22;16894;49.456;10.644;2023-07-13T01:51:58;18.30;98.10
30069;DHT22;16894;49.456;10.644;2023-07-13T01:54:23;18.30;98.30
30069;DHT22;16894;49.456;10.644;2023-07-13T01:56:49;18.20;98.10
30069;DHT22;16894;49.456;10.644;2023-07-13T01:59:15;18.30;98.20
30069;DHT22;16894;49.456;10.644;2023-07-13T02:01:40;18.20;98.70
30069;DHT22;16894;49.456;10.644;2023-07-13T02:04:06;18.30;98.50
30069;DHT22;16894;49.456;10.644;2023-07-13T02:06:32;18.30;98.40
30069;DHT22;16894;49.456;10.644;2023-07-13T02:08:58;18.30;98.30
30069;DHT22;16894;49.456;10.644;2023-07-13T02:11:24;18.30;98.60
30069;DHT22;16894;49.456;10.644;2023-07-13T02:13:50;18.20;98.30
30069;DHT22;16894;49.456;10.644;2023-07-13T02:16:16;18.00;98.60
30069;DHT22;16894;49.456;10.644;2023-07-13T02:18:42;17.90;98.90
30069;DHT22;16894;49.456;10.644;2023-07-13T02:21:07;17.80;99.20
30069;DHT22;16894;49.456;10.644;2023-07-13T02:23:33;17.70;99.40
30069;DHT22;16894;49.456;10.644;2023-07-13T02:26:00;17.60;99.30
30069;DHT22;16894;49.456;10.644;2023-07-13T02:28:28;17.60;99.30
30069;DHT22;16894;49.456;10.644;2023-07-13T02:30:54;17.50;99.40
30069;DHT22;16894;49.456;10.644;2023-07-13T02:33:19;17.50;99.70
30069;DHT22;16894;49.456;10.644;2023-07-13T02:35:45;17.40;99.50
30069;DHT22;16894;49.456;10.644;2023-07-13T02:38:11;17.40;99.80
30069;DHT22;16894;49.456;10.644;2023-07-13T02:40:36;17.40;99.50
30069;DHT22;16894;49.456;10.644;2023-07-13T02:43:03;17.40;99.60
30069;DHT22;16894;49.456;10.644;2023-07-13T02:45:28;17.40;99.70
30069;DHT22;16894;49.456;10.644;2023-07-13T02:47:54;17.30;99.50
30069;DHT22;16894;49.456;10.644;2023-07-13T02:50:20;17.30;99.70
30069;DHT22;16894;49.456;10.644;2023-07-13T02:52:46;17.30;99.90
30069;DHT22;16894;49.456;10.644;2023-07-13T02:55:11;17.20;99.90
30069;DHT22;16894;49.456;10.644;2023-07-13T02:57:37;17.20;99.90
30069;DHT22;16894;49.456;10.644;2023-07-13T03:00:03;17.30;99.90
30069;DHT22;16894;49.456;10.644;2023-07-13T03:02:34;17.20;99.90
30069;DHT22;16894;49.456;10.644;2023-07-13T03:05:01;17.20;99.90
30069;DHT22;16894;49.456;10.644;2023-07-13T03:07:27;17.10;99.90
30069;DHT22;16894;49.456;10.644;2023-07-13T03:09:57;17.10;99.90
30069;DHT22;16894;49.456;10.644;2023-07-13T03:12:24;17.00;99.90
30069;DHT22;16894;49.456;10.644;2023-07-13T03:14:50;16.90;99.90
30069;DHT22;16894;49.456;10.644;2023-07-13T03:17:16;16.80;99.90
30069;DHT22;16894;49.456;10.644;2023-07-13T03:19:42;16.80;99.90
30069;DHT22;16894;49.456;10.644;2023-07-13T03:22:07;16.80;99.90
30069;DHT22;16894;49.456;10.644;2023-07-13T03:24:34;16.80;99.90
30069;DHT22;16894;49.456;10.644;2023-07-13T03:27:03;16.80;99.90
30069;DHT22;16894;49.456;10.644;2023-07-13T03:29:29;16.70;99.90
30069;DHT22;16894;49.456;10.644;2023-07-13T03:31:54;16.70;99.90
30069;DHT22;16894;49.456;10.644;2023-07-13T03:34:20;16.70;99.90
30069;DHT22;16894;49.456;10.644;2023-07-13T03:36:46;16.70;99.90
30069;DHT22;16894;49.456;10.644;2023-07-13T03:39:12;16.70;99.90
30069;DHT22;16894;49.456;10.644;2023-07-13T03:41:38;16.70;99.90
30069;DHT22;16894;49.456;10.644;2023-07-13T03:44:04;16.60;99.90
30069;DHT22;16894;49.456;10.644;2023-07-13T03:46:30;16.60;99.90
30069;DHT22;16894;49.456;10.644;2023-07-13T03:48:56;16.60;99.90
30069;DHT22;16894;49.456;10.644;2023-07-13T03:51:22;16.50;99.90
30069;DHT22;16894;49.456;10.644;2023-07-13T03:53:48;16.50;99.90
30069;DHT22;16894;49.456;10.644;2023-07-13T03:56:15;16.60;99.90
30069;DHT22;16894;49.456;10.644;2023-07-13T03:58:42;16.60;99.90
30069;DHT22;16894;49.456;10.644;2023-07-13T04:01:09;16.60;99.90
30069;DHT22;16894;49.456;10.644;2023-07-13T04:03:36;16.50;99.90
30069;DHT22;16894;49.456;10.644;2023-07-13T04:06:04;16.50;99.90
30069;DHT22;16894;49.456;10.644;2023-07-13T04:08:33;16.50;99.90
30069;DHT22;16894;49.456;10.644;2023-07-13T04:10:59;16.50;99.90
30069;DHT22;16894;49.456;10.644;2023-07-13T04:13:25;16.50;99.90
30069;DHT22;16894;49.456;10.644;2023-07-13T04:15:51;16.40;99.90
30069;DHT22;16894;49.456;10.644;2023-07-13T04:18:18;16.50;99.90
30069;DHT22;16894;49.456;10.644;2023-07-13T04:20:46;16.50;99.90
30069;DHT22;16894;49.456;10.644;2023-07-13T04:23:11;16.50;99.90
30069;DHT22;16894;49.456;10.644;2023-07-13T04:25:37;16.60;99.90
30069;DHT22;16894;49.456;10.644;2023-07-13T04:28:03;16.60;99.90
30069;DHT22;16894;49.456;10.644;2023-07-13T04:30:29;16.60;99.90
30069;DHT22;16894;49.456;10.644;2023-07-13T04:32:55;16.60;99.90
30069;DHT22;16894;49.456;10.644;2023-07-13T04:35:21;16.70;99.90
30069;DHT22;16894;49.456;10.644;2023-07-13T04:37:48;16.70;99.90
30069;DHT22;16894;49.456;10.644;2023-07-13T04:40:16;16.80;99.90
30069;DHT22;16894;49.456;10.644;2023-07-13T04:42:44;16.90;99.90
30069;DHT22;16894;49.456;10.644;2023-07-13T04:45:10;17.00;99.80
30069;DHT22;16894;49.456;10.644;2023-07-13T04:47:35;17.10;99.40
30069;DHT22;16894;49.456;10.644;2023-07-13T04:50:01;17.20;99.20
30069;DHT22;16894;49.456;10.644;2023-07-13T04:52:27;17.30;98.70
30069;DHT22;16894;49.456;10.644;2023-07-13T04:54:53;17.40;98.50
30069;DHT22;16894;49.456;10.644;2023-07-13T04:57:18;17.40;98.40
30069;DHT22;16894;49.456;10.644;2023-07-13T04:59:44;17.40;98.30
30069;DHT22;16894;49.456;10.644;2023-07-13T05:02:10;17.50;98.40
30069;DHT22;16894;49.456;10.644;2023-07-13T05:04:35;17.50;98.60
30069;DHT22;16894;49.456;10.644;2023-07-13T05:07:01;17.60;98.30
30069;DHT22;16894;49.456;10.644;2023-07-13T05:09:27;17.60;98.40
30069;DHT22;16894;49.456;10.644;2023-07-13T05:11:52;17.70;98.30
30069;DHT22;16894;49.456;10.644;2023-07-13T05:14:18;17.80;98.10
30069;DHT22;16894;49.456;10.644;2023-07-13T05:16:44;17.80;97.90
30069;DHT22;16894;49.456;10.644;2023-07-13T05:19:10;17.90;97.70
30069;DHT22;16894;49.456;10.644;2023-07-13T05:21:36;18.00;97.40
30069;DHT22;16894;49.456;10.644;2023-07-13T05:24:01;18.10;97.10
30069;DHT22;16894;49.456;10.644;2023-07-13T05:26:27;18.20;96.80
30069;DHT22;16894;49.456;10.644;2023-07-13T05:28:53;18.30;96.90
30069;DHT22;16894;49.456;10.644;2023-07-13T05:31:19;18.30;96.70
30069;DHT22;16894;49.456;10.644;2023-07-13T05:33:44;18.30;96.20
30069;DHT22;16894;49.456;10.644;2023-07-13T05:36:10;18.20;96.10
30069;DHT22;16894;49.456;10.644;2023-07-13T05:38:36;18.20;96.60
30069;DHT22;16894;49.456;10.644;2023-07-13T05:41:02;18.20;96.60
30069;DHT22;16894;49.456;10.644;2023-07-13T05:43:27;18.20;96.60
30069;DHT22;16894;49.456;10.644;2023-07-13T05:45:54;18.20;96.60
30069;DHT22;16894;49.456;10.644;2023-07-13T05:48:20;18.20;96.70
30069;DHT22;16894;49.456;10.644;2023-07-13T05:50:46;18.20;96.70
30069;DHT22;16894;49.456;10.644;2023-07-13T05:53:12;18.20;96.80
30069;DHT22;16894;49.456;10.644;2023-07-13T05:55:43;18.40;96.90
30069;DHT22;16894;49.456;10.644;2023-07-13T05:58:09;18.50;96.80
30069;DHT22;16894;49.456;10.644;2023-07-13T06:00:35;18.60;96.40
30069;DHT22;16894;49.456;10.644;2023-07-13T06:03:01;18.80;96.40
30069;DHT22;16894;49.456;10.644;2023-07-13T06:05:27;18.90;96.10
30069;DHT22;16894;49.456;10.644;2023-07-13T06:07:54;19.20;95.40
30069;DHT22;16894;49.456;10.644;2023-07-13T06:10:20;19.20;95.00
30069;DHT22;16894;49.456;10.644;2023-07-13T06:12:46;19.20;94.40
30069;DHT22;16894;49.456;10.644;2023-07-13T06:15:11;19.20;94.80
30069;DHT22;16894;49.456;10.644;2023-07-13T06:17:37;19.20;93.90
30069;DHT22;16894;49.456;10.644;2023-07-13T06:20:03;19.30;94.10
30069;DHT22;16894;49.456;10.644;2023-07-13T06:22:29;19.30;93.90
30069;DHT22;16894;49.456;10.644;2023-07-13T06:24:54;19.30;94.00
30069;DHT22;16894;49.456;10.644;2023-07-13T06:27:20;19.30;94.00
30069;DHT22;16894;49.456;10.644;2023-07-13T06:29:46;19.30;93.40
30069;DHT22;16894;49.456;10.644;2023-07-13T06:32:11;19.30;93.30
30069;DHT22;16894;49.456;10.644;2023-07-13T06:34:37;19.40;93.30
30069;DHT22;16894;49.456;10.644;2023-07-13T06:37:03;19.50;93.60
30069;DHT22;16894;49.456;10.644;2023-07-13T06:39:29;19.60;93.50
30069;DHT22;16894;49.456;10.644;2023-07-13T06:41:54;19.60;93.20
30069;DHT22;16894;49.456;10.644;2023-07-13T06:44:20;19.70;92.50
30069;DHT22;16894;49.456;10.644;2023-07-13T06:46:46;19.70;92.70
30069;DHT22;16894;49.456;10.644;2023-07-13T06:49:11;19.70;92.70
30069;DHT22;16894;49.456;10.644;2023-07-13T06:51:37;19.90;92.20
30069;DHT22;16894;49.456;10.644;2023-07-13T06:54:03;20.00;91.80
30069;DHT22;16894;49.456;10.644;2023-07-13T06:56:29;20.10;91.80
30069;DHT22;16894;49.456;10.644;2023-07-13T06:58:54;20.20;91.30
30069;DHT22;16894;49.456;10.644;2023-07-13T07:01:20;20.30;90.30
30069;DHT22;16894;49.456;10.644;2023-07-13T07:03:46;20.30;90.30
30069;DHT22;16894;49.456;10.644;2023-07-13T07:06:17;20.50;90.80
30069;DHT22;16894;49.456;10.644;2023-07-13T07:08:43;20.50;90.90
30069;DHT22;16894;49.456;10.644;2023-07-13T07:11:13;20.70;90.50
30069;DHT22;16894;49.456;10.644;2023-07-13T07:13:39;20.80;90.80
30069;DHT22;16894;49.456;10.644;2023-07-13T07:16:04;20.60;90.10
30069;DHT22;16894;49.456;10.644;2023-07-13T07:18:30;20.50;88.60
30069;DHT22;16894;49.456;10.644;2023-07-13T07:20:56;20.40;89.20
30069;DHT22;16894;49.456;10.644;2023-07-13T07:23:21;20.40;89.20
30069;DHT22;16894;49.456;10.644;2023-07-13T07:25:47;20.40;89.60
30069;DHT22;16894;49.456;10.644;2023-07-13T07:28:15;20.50;89.00
30069;DHT22;16894;49.456;10.644;2023-07-13T07:30:44;20.60;88.50
30069;DHT22;16894;49.456;10.644;2023-07-13T07:33:09;20.70;88.10
30069;DHT22;16894;49.456;10.644;2023-07-13T07:35:35;20.80;87.60
30069;DHT22;16894;49.456;10.644;2023-07-13T07:38:01;20.80;88.00
30069;DHT22;16894;49.456;10.644;2023-07-13T07:40:26;21.00;88.00
30069;DHT22;16894;49.456;10.644;2023-07-13T07:42:52;21.20;87.10
30069;DHT22;16894;49.456;10.644;2023-07-13T07:45:20;21.30;86.30
30069;DHT22;16894;49.456;10.644;2023-07-13T07:47:47;21.30;86.30
30069;DHT22;16894;49.456;10.644;2023-07-13T07:50:13;21.10;87.30
30069;DHT22;16894;49.456;10.644;2023-07-13T07:52:38;21.00;87.30
30069;DHT22;16894;49.456;10.644;2023-07-13T07:55:06;21.00;87.70
30069;DHT22;16894;49.456;10.644;2023-07-13T07:57:32;21.10;87.60
30069;DHT22;16894;49.456;10.644;2023-07-13T07:59:58;21.00;87.20
30069;DHT22;16894;49.456;10.644;2023-07-13T08:02:25;20.80;88.00
30069;DHT22;16894;49.456;10.644;2023-07-13T08:04:51;20.80;88.50
30069;DHT22;16894;49.456;10.644;2023-07-13T08:07:16;20.80;88.40
30069;DHT22;16894;49.456;10.644;2023-07-13T08:09:42;21.00;88.70
30069;DHT22;16894;49.456;10.644;2023-07-13T08:12:08;21.10;88.10
30069;DHT22;16894;49.456;10.644;2023-07-13T08:14:34;21.10;86.90
30069;DHT22;16894;49.456;10.644;2023-07-13T08:16:59;21.00;87.60
30069;DHT22;16894;49.456;10.644;2023-07-13T08:19:25;21.20;86.80
30069;DHT22;16894;49.456;10.644;2023-07-13T08:21:51;21.50;86.80
30069;DHT22;16894;49.456;10.644;2023-07-13T08:24:17;21.50;84.70
30069;DHT22;16894;49.456;10.644;2023-07-13T08:26:44;21.50;85.40
30069;DHT22;16894;49.456;10.644;2023-07-13T08:29:11;21.60;85.90
30069;DHT22;16894;49.456;10.644;2023-07-13T08:31:37;21.90;84.00
30069;DHT22;16894;49.456;10.644;2023-07-13T08:34:03;22.30;83.40
30069;DHT22;16894;49.456;10.644;2023-07-13T08:36:29;22.50;83.20
30069;DHT22;16894;49.456;10.644;2023-07-13T08:38:54;22.60;80.80
30069;DHT22;16894;49.456;10.644;2023-07-13T08:41:21;22.80;79.40
30069;DHT22;16894;49.456;10.644;2023-07-13T08:43:50;23.10;78.80
30069;DHT22;16894;49.456;10.644;2023-07-13T08:46:25;23.30;77.00
30069;DHT22;16894;49.456;10.644;2023-07-13T08:48:55;23.50;76.70
30069;DHT22;16894;49.456;10.644;2023-07-13T08:56:53;24.00;70.90
30069;DHT22;16894;49.456;10.644;2023-07-13T08:59:25;23.90;70.00
30069;DHT22;16894;49.456;10.644;2023-07-13T09:01:59;24.40;69.30
30069;DHT22;16894;49.456;10.644;2023-07-13T09:04:44;24.30;69.90
30069;DHT22;16894;49.456;10.644;2023-07-13T09:10:27;24.30;68.00
30069;DHT22;16894;49.456;10.644;2023-07-13T09:15:35;24.50;68.80
30069;DHT22;16894;49.456;10.644;2023-07-13T09:21:03;24.80;68.10
30069;DHT22;16894;49.456;10.644;2023-07-13T09:23:31;24.70;67.20
30069;DHT22;16894;49.456;10.644;2023-07-13T09:26:13;24.50;67.30
30069;DHT22;16894;49.456;10.644;2023-07-13T09:28:42;24.40;67.60
30069;DHT22;16894;49.456;10.644;2023-07-13T09:33:50;25.20;67.00
30069;DHT22;16894;49.456;10.644;2023-07-13T09:36:28;25.40;67.10
30069;DHT22;16894;49.456;10.644;2023-07-13T09:39:09;25.40;66.50
30069;DHT22;16894;49.456;10.644;2023-07-13T09:44:49;26.40;66.20
30069;DHT22;16894;49.456;10.644;2023-07-13T09:47:18;26.30;63.70
30069;DHT22;16894;49.456;10.644;2023-07-13T09:49:44;26.20;63.90
30069;DHT22;16894;49.456;10.644;2023-07-13T09:52:12;25.90;64.00
30069;DHT22;16894;49.456;10.644;2023-07-13T09:54:43;25.90;64.30
30069;DHT22;16894;49.456;10.644;2023-07-13T09:57:17;26.00;64.40
30069;DHT22;16894;49.456;10.644;2023-07-13T09:59:46;25.40;64.90
30069;DHT22;16894;49.456;10.644;2023-07-13T10:02:29;25.70;64.10
30069;DHT22;16894;49.456;10.644;2023-07-13T10:05:01;26.00;64.70
30069;DHT22;16894;49.456;10.644;2023-07-13T10:07:30;26.70;62.70
30069;DHT22;16894;49.456;10.644;2023-07-13T10:10:00;26.40;63.60
30069;DHT22;16894;49.456;10.644;2023-07-13T10:12:28;26.50;62.90
30069;DHT22;16894;49.456;10.644;2023-07-13T10:14:57;26.60;63.10
30069;DHT22;16894;49.456;10.644;2023-07-13T10:17:32;26.50;62.40
30069;DHT22;16894;49.456;10.644;2023-07-13T10:20:02;26.10;63.00
30069;DHT22;16894;49.456;10.644;2023-07-13T10:23:02;26.30;63.30
30069;DHT22;16894;49.456;10.644;2023-07-13T10:25:38;26.40;63.80
30069;DHT22;16894;49.456;10.644;2023-07-13T10:28:27;26.40;62.00
30069;DHT22;16894;49.456;10.644;2023-07-13T10:30:56;26.00;62.40
30069;DHT22;16894;49.456;10.644;2023-07-13T10:33:23;25.40;62.80
30069;DHT22;16894;49.456;10.644;2023-07-13T10:35:52;25.40;63.40
30069;DHT22;16894;49.456;10.644;2023-07-13T10:38:22;25.30;63.50
30069;DHT22;16894;49.456;10.644;2023-07-13T10:41:07;25.80;64.50
30069;DHT22;16894;49.456;10.644;2023-07-13T10:43:39;26.80;61.40
30069;DHT22;16894;49.456;10.644;2023-07-13T10:46:08;27.50;62.20
30069;DHT22;16894;49.456;10.644;2023-07-13T10:48:35;27.60;60.70
30069;DHT22;16894;49.456;10.644;2023-07-13T10:51:04;27.80;59.50
30069;DHT22;16894;49.456;10.644;2023-07-13T10:53:34;28.10;60.20
30069;DHT22;16894;49.456;10.644;2023-07-13T10:56:01;27.90;60.20
30069;DHT22;16894;49.456;10.644;2023-07-13T10:59:09;27.90;59.60
30069;DHT22;16894;49.456;10.644;2023-07-13T11:01:46;28.40;60.30
30069;DHT22;16894;49.456;10.644;2023-07-13T11:04:18;29.20;58.80
30069;DHT22;16894;49.456;10.644;2023-07-13T11:06:47;30.30;57.70
30069;DHT22;16894;49.456;10.644;2023-07-13T11:12:00;29.30;57.80
30069;DHT22;16894;49.456;10.644;2023-07-13T11:15:11;29.70;57.10
30069;DHT22;16894;49.456;10.644;2023-07-13T11:17:34;30.20;55.80
30069;DHT22;16894;49.456;10.644;2023-07-13T11:23:15;29.60;58.10
30069;DHT22;16894;49.456;10.644;2023-07-13T11:25:43;30.50;56.70
30069;DHT22;16894;49.456;10.644;2023-07-13T11:31:01;30.20;55.10
30069;DHT22;16894;49.456;10.644;2023-07-13T11:36:16;28.90;56.40
30069;DHT22;16894;49.456;10.644;2023-07-13T11:39:05;27.90;58.90
30069;DHT22;16894;49.456;10.644;2023-07-13T11:41:53;27.70;59.10
30069;DHT22;16894;49.456;10.644;2023-07-13T11:44:22;27.60;59.30
30069;DHT22;16894;49.456;10.644;2023-07-13T11:46:59;27.60;59.80
30069;DHT22;16894;49.456;10.644;2023-07-13T11:49:30;27.50;60.50
30069;DHT22;16894;49.456;10.644;2023-07-13T11:51:58;27.60;60.00
30069;DHT22;16894;49.456;10.644;2023-07-13T11:54:33;27.50;59.10
30069;DHT22;16894;49.456;10.644;2023-07-13T11:59:41;26.90;60.20
30069;DHT22;16894;49.456;10.644;2023-07-13T12:02:31;27.50;59.80
30069;DHT22;16894;49.456;10.644;2023-07-13T12:04:58;28.20;59.80
30069;DHT22;16894;49.456;10.644;2023-07-13T12:07:29;28.90;58.40
30069;DHT22;16894;49.456;10.644;2023-07-13T12:10:23;28.60;58.10
30069;DHT22;16894;49.456;10.644;2023-07-13T12:13:03;28.70;57.50
30069;DHT22;16894;49.456;10.644;2023-07-13T12:15:41;28.70;58.90
30069;DHT22;16894;49.456;10.644;2023-07-13T12:18:21;29.70;56.20
30069;DHT22;16894;49.456;10.644;2023-07-13T12:20:48;29.70;55.30
30069;DHT22;16894;49.456;10.644;2023-07-13T12:23:30;29.00;56.00
30069;DHT22;16894;49.456;10.644;2023-07-13T12:25:57;27.90;57.80
30069;DHT22;16894;49.456;10.644;2023-07-13T12:28:35;28.00;59.20
30069;DHT22;16894;49.456;10.644;2023-07-13T12:31:15;28.50;57.80
30069;DHT22;16894;49.456;10.644;2023-07-13T12:33:47;29.10;56.30
30069;DHT22;16894;49.456;10.644;2023-07-13T12:36:13;29.20;56.90
30069;DHT22;16894;49.456;10.644;2023-07-13T12:38:39;29.80;55.30
30069;DHT22;16894;49.456;10.644;2023-07-13T12:41:08;30.10;56.10
30069;DHT22;16894;49.456;10.644;2023-07-13T12:43:36;30.30;54.80
30069;DHT22;16894;49.456;10.644;2023-07-13T12:46:20;29.80;55.60
30069;DHT22;16894;49.456;10.644;2023-07-13T12:48:51;29.80;55.00
30069;DHT22;16894;49.456;10.644;2023-07-13T12:51:21;30.00;55.30
30069;DHT22;16894;49.456;10.644;2023-07-13T12:53:49;30.30;53.90
30069;DHT22;16894;49.456;10.644;2023-07-13T12:56:24;29.90;54.60
30069;DHT22;16894;49.456;10.644;2023-07-13T12:58:56;29.60;53.40
30069;DHT22;16894;49.456;10.644;2023-07-13T13:01:29;29.00;54.70
30069;DHT22;16894;49.456;10.644;2023-07-13T13:03:55;28.20;55.40
30069;DHT22;16894;49.456;10.644;2023-07-13T13:06:27;27.60;57.00
30069;DHT22;16894;49.456;10.644;2023-07-13T13:08:55;27.10;56.00
30069;DHT22;16894;49.456;10.644;2023-07-13T13:11:22;26.60;58.30
30069;DHT22;16894;49.456;10.644;2023-07-13T13:13:49;27.10;57.20
30069;DHT22;16894;49.456;10.644;2023-07-13T13:16:31;27.80;57.30
30069;DHT22;16894;49.456;10.644;2023-07-13T13:18:59;28.80;55.70
30069;DHT22;16894;49.456;10.644;2023-07-13T13:21:27;28.60;55.40
30069;DHT22;16894;49.456;10.644;2023-07-13T13:23:53;28.00;55.60
30069;DHT22;16894;49.456;10.644;2023-07-13T13:26:21;27.60;57.00
30069;DHT22;16894;49.456;10.644;2023-07-13T13:28:47;27.30;57.50
30069;DHT22;16894;49.456;10.644;2023-07-13T13:31:15;27.40;57.90
30069;DHT22;16894;49.456;10.644;2023-07-13T13:33:42;28.80;56.40
30069;DHT22;16894;49.456;10.644;2023-07-13T13:36:22;29.90;54.80
30069;DHT22;16894;49.456;10.644;2023-07-13T13:38:49;30.00;54.80
30069;DHT22;16894;49.456;10.644;2023-07-13T13:41:15;29.20;55.40
30069;DHT22;16894;49.456;10.644;2023-07-13T13:43:42;29.20;54.80
30069;DHT22;16894;49.456;10.644;2023-07-13T13:46:24;28.70;55.00
30069;DHT22;16894;49.456;10.644;2023-07-13T13:48:51;28.60;55.60
30069;DHT22;16894;49.456;10.644;2023-07-13T13:51:22;29.10;56.70
30069;DHT22;16894;49.456;10.644;2023-07-13T13:53:49;30.10;54.50
30069;DHT22;16894;49.456;10.644;2023-07-13T13:56:17;31.30;52.60
30069;DHT22;16894;49.456;10.644;2023-07-13T13:58:43;30.40;52.80
30069;DHT22;16894;49.456;10.644;2023-07-13T14:01:27;28.90;54.30
30069;DHT22;16894;49.456;10.644;2023-07-13T14:03:53;27.90;55.20
30069;DHT22;16894;49.456;10.644;2023-07-13T14:06:19;28.20;55.30
30069;DHT22;16894;49.456;10.644;2023-07-13T14:08:45;29.50;53.50
30069;DHT22;16894;49.456;10.644;2023-07-13T14:11:18;30.40;53.40
30069;DHT22;16894;49.456;10.644;2023-07-13T14:13:56;31.30;51.90
30069;DHT22;16894;49.456;10.644;2023-07-13T14:16:28;31.90;50.80
30069;DHT22;16894;49.456;10.644;2023-07-13T14:18:55;31.60;51.50
30069;DHT22;16894;49.456;10.644;2023-07-13T14:21:24;32.60;50.10
30069;DHT22;16894;49.456;10.644;2023-07-13T14:23:50;33.00;50.00
30069;DHT22;16894;49.456;10.644;2023-07-13T14:28:43;32.90;49.70
30069;DHT22;16894;49.456;10.644;2023-07-13T14:31:11;33.00;49.50
30069;DHT22;16894;49.456;10.644;2023-07-13T14:33:37;31.90;49.80
30069;DHT22;16894;49.456;10.644;2023-07-13T14:36:18;31.60;50.60
30069;DHT22;16894;49.456;10.644;2023-07-13T14:38:46;32.00;50.60
30069;DHT22;16894;49.456;10.644;2023-07-13T14:41:11;32.60;49.70
30069;DHT22;16894;49.456;10.644;2023-07-13T14:43:37;32.30;49.40
30069;DHT22;16894;49.456;10.644;2023-07-13T14:46:03;31.80;50.10
30069;DHT22;16894;49.456;10.644;2023-07-13T14:48:30;31.60;50.50
30069;DHT22;16894;49.456;10.644;2023-07-13T14:50:57;32.00;50.00
30069;DHT22;16894;49.456;10.644;2023-07-13T14:53:25;31.70;50.20
30069;DHT22;16894;49.456;10.644;2023-07-13T14:55:52;32.00;50.30
30069;DHT22;16894;49.456;10.644;2023-07-13T14:58:18;31.80;50.70
30069;DHT22;16894;49.456;10.644;2023-07-13T15:00:44;31.50;50.30
30069;DHT22;16894;49.456;10.644;2023-07-13T15:03:22;30.20;51.70
30069;DHT22;16894;49.456;10.644;2023-07-13T15:05:48;29.20;52.00
30069;DHT22;16894;49.456;10.644;2023-07-13T15:08:15;28.40;54.20
30069;DHT22;16894;49.456;10.644;2023-07-13T15:10:41;28.50;55.00
30069;DHT22;16894;49.456;10.644;2023-07-13T15:13:21;29.10;54.60
30069;DHT22;16894;49.456;10.644;2023-07-13T15:15:51;28.60;54.30
30069;DHT22;16894;49.456;10.644;2023-07-13T15:18:21;28.40;55.50
30069;DHT22;16894;49.456;10.644;2023-07-13T15:20:48;28.80;54.90
30069;DHT22;16894;49.456;10.644;2023-07-13T15:23:16;29.20;53.80
30069;DHT22;16894;49.456;10.644;2023-07-13T15:25:43;29.30;53.80
30069;DHT22;16894;49.456;10.644;2023-07-13T15:28:09;29.50;53.00
30069;DHT22;16894;49.456;10.644;2023-07-13T15:30:40;29.40;53.80
30069;DHT22;16894;49.456;10.644;2023-07-13T15:33:25;29.00;53.20
30069;DHT22;16894;49.456;10.644;2023-07-13T15:35:52;28.30;54.30
30069;DHT22;16894;49.456;10.644;2023-07-13T15:38:28;27.70;55.10
30069;DHT22;16894;49.456;10.644;2023-07-13T15:40:55;27.90;56.00
30069;DHT22;16894;49.456;10.644;2023-07-13T15:43:22;28.10;55.10
30069;DHT22;16894;49.456;10.644;2023-07-13T15:45:48;27.80;55.60
30069;DHT22;16894;49.456;10.644;2023-07-13T15:48:21;27.70;55.10
30069;DHT22;16894;49.456;10.644;2023-07-13T15:50:50;27.70;55.60
30069;DHT22;16894;49.456;10.644;2023-07-13T15:53:23;27.40;55.80
30069;DHT22;16894;49.456;10.644;2023-07-13T15:55:49;26.90;56.20
30069;DHT22;16894;49.456;10.644;2023-07-13T15:58:15;26.50;56.70
30069;DHT22;16894;49.456;10.644;2023-07-13T16:00:42;26.30;57.10
30069;DHT22;16894;49.456;10.644;2023-07-13T16:03:08;26.30;57.40